TimeCST,TemperatureF,Dew PointF,Humidity,Sea Level PressureIn,VisibilityMPH,Wind Direction,Wind SpeedMPH,Gust SpeedMPH,PrecipitationIn,Events,Conditions,WindDirDegrees,DateUTC
12:15 AM,51.8,50.2,94,29.94,10.0,Calm,Calm,-,N/A,,Overcast,0,2013-02-05 06:15:00
12:35 AM,51.4,50.0,95,29.93,10.0,Calm,Calm,-,N/A,,Overcast,0,2013-02-05 06:35:00
12:55 AM,51.8,50.0,94,29.93,10.0,Calm,Calm,-,N/A,,Mostly Cloudy,0,2013-02-05 06:55:00
1:15 AM,51.1,49.5,94,29.93,10.0,Calm,Calm,-,N/A,,Scattered Clouds,0,2013-02-05 07:15:00
1:35 AM,50.4,49.3,96,29.93,10.0,Calm,Calm,-,N/A,,Scattered Clouds,0,2013-02-05 07:35:00
1:55 AM,50.4,49.8,98,29.93,10.0,SSE,3.5,-,N/A,,Overcast,160,2013-02-05 07:55:00
2:15 AM,51.1,50.2,97,29.93,10.0,SE,3.5,-,N/A,,Overcast,140,2013-02-05 08:15:00
2:35 AM,51.4,50.2,95,29.92,10.0,Calm,Calm,-,N/A,,Overcast,0,2013-02-05 08:35:00
2:55 AM,51.4,50.2,95,29.92,10.0,Calm,Calm,-,N/A,,Overcast,0,2013-02-05 08:55:00
3:15 AM,51.8,50.5,95,29.93,10.0,Calm,Calm,-,N/A,,Overcast,0,2013-02-05 09:15:00
3:35 AM,51.8,50.9,97,29.92,10.0,Calm,Calm,-,N/A,,Overcast,0,2013-02-05 09:35:00
3:55 AM,52.2,50.9,95,29.92,10.0,Calm,Calm,-,N/A,,Overcast,0,2013-02-05 09:55:00
4:15 AM,52.2,50.9,95,29.93,10.0,Calm,Calm,-,N/A,,Overcast,0,2013-02-05 10:15:00
4:35 AM,52.7,51.1,94,29.93,10.0,Calm,Calm,-,N/A,,Overcast,0,2013-02-05 10:35:00
4:55 AM,52.9,50.9,93,29.93,10.0,Calm,Calm,-,N/A,,Overcast,0,2013-02-05 10:55:00
5:15 AM,52.9,51.1,94,29.94,10.0,Calm,Calm,-,N/A,,Overcast,0,2013-02-05 11:15:00
5:35 AM,52.7,51.8,97,29.95,4.0,Calm,Calm,-,N/A,,Overcast,0,2013-02-05 11:35:00
5:55 AM,52.3,52.2,99,29.95,0.2,Calm,Calm,-,N/A,Fog,Fog,0,2013-02-05 11:55:00
6:15 AM,52.7,52.7,100,29.96,0.2,Calm,Calm,-,N/A,Fog,Fog,0,2013-02-05 12:15:00
6:35 AM,52.7,52.7,100,29.96,0.2,Calm,Calm,-,N/A,Fog,Fog,0,2013-02-05 12:35:00
6:55 AM,52.7,52.7,100,29.96,0.2,Calm,Calm,-,N/A,Fog,Fog,0,2013-02-05 12:55:00
7:15 AM,53.1,53.1,100,29.97,0.2,Calm,Calm,-,N/A,Fog,Fog,0,2013-02-05 13:15:00
7:35 AM,53.6,53.6,100,29.98,0.2,Calm,Calm,-,N/A,Fog,Fog,0,2013-02-05 13:35:00
7:55 AM,53.6,53.6,100,29.99,0.2,Calm,Calm,-,N/A,Fog,Fog,0,2013-02-05 13:55:00
8:15 AM,53.8,53.8,100,29.99,0.2,Calm,Calm,-,N/A,Fog,Fog,0,2013-02-05 14:15:00
9:15 AM,54.5,54.5,100,30.02,0.8,Calm,Calm,-,N/A,,Overcast,0,2013-02-05 15:15:00
9:35 AM,55.2,55.2,100,30.02,1.2,Calm,Calm,-,N/A,,Overcast,0,2013-02-05 15:35:00
10:15 AM,56.5,55.6,97,30.04,2.5,Calm,Calm,-,N/A,,Overcast,0,2013-02-05 16:15:00
10:35 AM,56.8,55.9,97,30.04,4.0,Calm,Calm,-,N/A,,Overcast,0,2013-02-05 16:35:00
10:55 AM,57.2,56.3,97,30.04,2.0,Calm,Calm,-,N/A,,Overcast,0,2013-02-05 16:55:00
11:15 AM,57.4,56.5,97,30.04,2.5,Calm,Calm,-,N/A,,Overcast,0,2013-02-05 17:15:00
11:35 AM,58.1,56.8,96,30.04,3.0,Calm,Calm,-,N/A,,Overcast,0,2013-02-05 17:35:00
11:55 AM,59.4,57.0,92,30.04,5.0,Calm,Calm,-,N/A,,Overcast,0,2013-02-05 17:55:00
12:15 PM,59.2,56.8,92,30.03,5.0,Calm,Calm,-,N/A,,Overcast,0,2013-02-05 18:15:00
12:35 PM,60.1,57.4,91,30.02,5.0,Calm,Calm,-,N/A,,Overcast,0,2013-02-05 18:35:00
12:55 PM,61.3,57.2,86,30.02,7.0,Calm,Calm,-,N/A,,Overcast,0,2013-02-05 18:55:00
1:15 PM,64.0,58.1,81,30.01,7.0,Calm,Calm,-,N/A,,Overcast,0,2013-02-05 19:15:00
1:35 PM,63.9,57.9,81,30.00,7.0,Calm,Calm,-,N/A,,Overcast,0,2013-02-05 19:35:00
1:55 PM,66.2,58.5,76,29.99,10.0,Calm,Calm,-,N/A,,Scattered Clouds,0,2013-02-05 19:55:00
2:15 PM,66.9,57.9,73,29.99,10.0,Calm,Calm,-,N/A,,Clear,0,2013-02-05 20:15:00
2:35 PM,68.2,58.1,70,29.99,10.0,Calm,Calm,-,N/A,,Mostly Cloudy,0,2013-02-05 20:35:00
2:55 PM,68.0,58.1,71,29.98,10.0,Calm,Calm,-,N/A,,Scattered Clouds,0,2013-02-05 20:55:00
3:15 PM,67.8,57.9,71,29.98,7.0,Calm,Calm,-,N/A,,Clear,0,2013-02-05 21:15:00
3:35 PM,67.3,57.9,72,29.98,5.0,ENE,3.5,-,N/A,,Haze,70,2013-02-05 21:35:00
3:55 PM,68.2,57.6,69,29.98,7.0,Calm,Calm,-,N/A,,Scattered Clouds,0,2013-02-05 21:55:00
4:15 PM,67.1,57.4,71,29.98,10.0,Calm,Calm,-,N/A,,Scattered Clouds,0,2013-02-05 22:15:00
4:35 PM,67.6,57.4,70,29.98,7.0,Calm,Calm,-,N/A,,Scattered Clouds,0,2013-02-05 22:35:00
4:55 PM,67.3,57.2,70,29.98,10.0,Calm,Calm,-,N/A,,Clear,0,2013-02-05 22:55:00
5:15 PM,66.4,56.8,71,29.98,10.0,Calm,Calm,-,N/A,,Clear,0,2013-02-05 23:15:00
5:35 PM,64.8,56.7,75,29.97,10.0,Calm,Calm,-,N/A,,Clear,0,2013-02-05 23:35:00
5:55 PM,64.0,56.7,77,29.98,10.0,NE,3.5,-,N/A,,Clear,50,2013-02-05 23:55:00
6:35 PM,61.2,56.3,84,29.98,-9999.0,Calm,Calm,-,N/A,,Clear,0,2013-02-06 00:35:00
6:55 PM,58.8,55.2,88,29.99,-9999.0,Calm,Calm,-,N/A,,Unknown,0,2013-02-06 00:55:00
7:15 PM,57.6,56.1,95,30.00,-9999.0,Calm,Calm,-,N/A,,Unknown,0,2013-02-06 01:15:00
7:35 PM,55.6,55.0,98,30.01,-9999.0,Calm,Calm,-,N/A,,Unknown,0,2013-02-06 01:35:00
7:55 PM,55.6,55.0,98,30.01,-9999.0,Calm,Calm,-,N/A,,Unknown,0,2013-02-06 01:55:00
8:15 PM,55.4,54.9,98,30.02,-9999.0,Calm,Calm,-,N/A,,Unknown,0,2013-02-06 02:15:00
8:35 PM,55.6,54.5,96,30.03,-9999.0,Calm,Calm,-,N/A,,Unknown,0,2013-02-06 02:35:00
8:55 PM,55.9,55.0,97,30.04,-9999.0,Calm,Calm,-,N/A,,Unknown,0,2013-02-06 02:55:00
9:15 PM,55.6,54.7,97,30.04,-9999.0,Calm,Calm,-,N/A,,Unknown,0,2013-02-06 03:15:00
9:35 PM,54.1,54.0,99,30.04,-9999.0,Calm,Calm,-,N/A,,Unknown,0,2013-02-06 03:35:00
9:55 PM,52.3,51.6,97,30.05,-9999.0,Calm,Calm,-,N/A,,Unknown,0,2013-02-06 03:55:00
10:15 PM,54.7,54.7,100,30.05,-9999.0,ENE,5.8,-,N/A,,Unknown,70,2013-02-06 04:15:00
10:35 PM,56.5,55.4,96,30.06,-9999.0,ESE,3.5,-,N/A,,Mostly Cloudy,110,2013-02-06 04:35:00
10:55 PM,55.4,54.5,97,30.06,-9999.0,Calm,Calm,-,N/A,,Unknown,0,2013-02-06 04:55:00
11:15 PM,53.6,53.2,99,30.05,5.0,Calm,Calm,-,N/A,,Scattered Clouds,0,2013-02-06 05:15:00
11:35 PM,53.1,52.7,99,30.05,5.0,Calm,Calm,-,N/A,,Overcast,0,2013-02-06 05:35:00
11:55 PM,52.9,52.9,100,30.05,3.0,Calm,Calm,-,N/A,,Overcast,0,2013-02-06 05:55:00